sensor_id;sensor_type;location;lat;lon;timestamp;pressure;altitude;pressure_sealevel;temperature;humidity
7178;BME280;3630;42.146;24.756;2023-01-13T00:00:47;99818.84;;;9.00;68.99
7178;BME280;3630;42.146;24.756;2023-01-13T00:03:14;99810.25;;;8.98;69.16
7178;BME280;3630;42.146;24.756;2023-01-13T00:05:41;99815.38;;;8.98;69.48
7178;BME280;3630;42.146;24.756;2023-01-13T00:08:08;99817.00;;;8.96;69.71
7178;BME280;3630;42.146;24.756;2023-01-13T00:10:36;99813.72;;;9.00;69.45
7178;BME280;3630;42.146;24.756;2023-01-13T00:13:04;99818.84;;;9.00;69.72
7178;BME280;3630;42.146;24.756;2023-01-13T00:15:31;99817.16;;;9.02;69.77
7178;BME280;3630;42.146;24.756;2023-01-13T00:17:58;99811.16;;;9.01;69.48
7178;BME280;3630;42.146;24.756;2023-01-13T00:20:25;99817.16;;;9.02;70.01
7178;BME280;3630;42.146;24.756;2023-01-13T00:22:52;99810.47;;;9.07;69.38
7178;BME280;3630;42.146;24.756;2023-01-13T00:25:20;99819.00;;;9.06;68.93
7178;BME280;3630;42.146;24.756;2023-01-13T00:27:48;99810.25;;;8.98;68.13
7178;BME280;3630;42.146;24.756;2023-01-13T00:30:15;99806.69;;;8.93;68.87
7178;BME280;3630;42.146;24.756;2023-01-13T00:32:42;99808.56;;;8.98;69.05
7178;BME280;3630;42.146;24.756;2023-01-13T00:35:09;99803.47;;;9.00;68.11
7178;BME280;3630;42.146;24.756;2023-01-13T00:37:36;99798.84;;;8.88;68.04
7178;BME280;3630;42.146;24.756;2023-01-13T00:40:04;99811.88;;;8.96;68.42
7178;BME280;3630;42.146;24.756;2023-01-13T00:42:32;99815.91;;;8.87;68.74
7178;BME280;3630;42.146;24.756;2023-01-13T00:45:17;99809.97;;;8.88;68.93
7178;BME280;3630;42.146;24.756;2023-01-13T00:47:44;99804.06;;;8.91;68.45
7178;BME280;3630;42.146;24.756;2023-01-13T00:50:10;99817.66;;;8.88;68.77
7178;BME280;3630;42.146;24.756;2023-01-13T00:52:37;99819.31;;;8.86;68.59
7178;BME280;3630;42.146;24.756;2023-01-13T00:55:05;99817.31;;;8.76;69.12
7178;BME280;3630;42.146;24.756;2023-01-13T00:57:33;99809.72;;;8.79;69.09
7178;BME280;3630;42.146;24.756;2023-01-13T00:59:59;99810.56;;;8.78;69.41
7178;BME280;3630;42.146;24.756;2023-01-13T01:02:28;99813.84;;;8.74;68.92
7178;BME280;3630;42.146;24.756;2023-01-13T01:04:54;99806.25;;;8.77;68.91
7178;BME280;3630;42.146;24.756;2023-01-13T01:07:21;99808.78;;;8.76;68.85
7178;BME280;3630;42.146;24.756;2023-01-13T01:09:48;99804.44;;;8.73;68.88
7178;BME280;3630;42.146;24.756;2023-01-13T01:12:15;99806.16;;;8.74;68.36
7178;BME280;3630;42.146;24.756;2023-01-13T01:14:42;99807.81;;;8.72;68.64
7178;BME280;3630;42.146;24.756;2023-01-13T01:17:09;99813.13;;;8.78;68.14
7178;BME280;3630;42.146;24.756;2023-01-13T01:19:37;99792.31;;;8.68;68.28
7178;BME280;3630;42.146;24.756;2023-01-13T01:22:03;99793.44;;;8.77;68.30
7178;BME280;3630;42.146;24.756;2023-01-13T01:24:30;99791.88;;;8.82;67.95
7178;BME280;3630;42.146;24.756;2023-01-13T01:26:57;99797.06;;;8.84;67.32
7178;BME280;3630;42.146;24.756;2023-01-13T01:29:24;99797.78;;;8.80;67.66
7178;BME280;3630;42.146;24.756;2023-01-13T01:31:50;99802.88;;;8.78;67.55
7178;BME280;3630;42.146;24.756;2023-01-13T01:34:17;99798.56;;;8.77;67.85
7178;BME280;3630;42.146;24.756;2023-01-13T01:36:45;99799.56;;;8.82;67.71
7178;BME280;3630;42.146;24.756;2023-01-13T01:39:12;99802.22;;;8.85;67.58
7178;BME280;3630;42.146;24.756;2023-01-13T01:41:39;99770.28;;;8.74;67.60
7178;BME280;3630;42.146;24.756;2023-01-13T01:44:50;99789.38;;;8.84;67.35
7178;BME280;3630;42.146;24.756;2023-01-13T01:47:17;99792.84;;;8.86;67.35
7178;BME280;3630;42.146;24.756;2023-01-13T01:49:45;99788.44;;;8.82;67.42
7178;BME280;3630;42.146;24.756;2023-01-13T01:52:15;99794.44;;;8.82;67.43
7178;BME280;3630;42.146;24.756;2023-01-13T01:54:48;99789.28;;;8.81;67.60
7178;BME280;3630;42.146;24.756;2023-01-13T01:57:19;99790.97;;;8.80;67.30
7178;BME280;3630;42.146;24.756;2023-01-13T01:59:48;99764.06;;;8.65;67.87
7178;BME280;3630;42.146;24.756;2023-01-13T02:02:15;99794.19;;;8.73;67.75
7178;BME280;3630;42.146;24.756;2023-01-13T02:04:47;99767.22;;;8.56;67.79
7178;BME280;3630;42.146;24.756;2023-01-13T02:07:19;99793.16;;;8.68;67.87
7178;BME280;3630;42.146;24.756;2023-01-13T02:09:48;99797.31;;;8.63;67.69
7178;BME280;3630;42.146;24.756;2023-01-13T02:12:15;99797.28;;;8.62;67.95
7178;BME280;3630;42.146;24.756;2023-01-13T02:14:59;99800.63;;;8.59;68.04
7178;BME280;3630;42.146;24.756;2023-01-13T02:17:38;99800.72;;;8.62;68.43
7178;BME280;3630;42.146;24.756;2023-01-13T02:20:37;99797.22;;;8.60;67.87
7178;BME280;3630;42.146;24.756;2023-01-13T02:23:30;99801.47;;;8.60;68.09
7178;BME280;3630;42.146;24.756;2023-01-13T02:26:56;99805.13;;;8.68;67.73
7178;BME280;3630;42.146;24.756;2023-01-13T02:29:50;99811.09;;;8.68;67.58
7178;BME280;3630;42.146;24.756;2023-01-13T02:32:39;99804.97;;;8.63;68.33
7178;BME280;3630;42.146;24.756;2023-01-13T02:35:13;99801.44;;;8.58;68.15
7178;BME280;3630;42.146;24.756;2023-01-13T02:37:44;99808.25;;;8.58;68.17
7178;BME280;3630;42.146;24.756;2023-01-13T02:40:18;99806.56;;;8.58;67.88
7178;BME280;3630;42.146;24.756;2023-01-13T02:42:51;99811.66;;;8.58;67.92
7178;BME280;3630;42.146;24.756;2023-01-13T02:45:43;99810.69;;;8.53;68.12
7178;BME280;3630;42.146;24.756;2023-01-13T02:48:14;99810.50;;;8.47;68.08
7178;BME280;3630;42.146;24.756;2023-01-13T02:50:47;99819.94;;;8.50;68.12
7178;BME280;3630;42.146;24.756;2023-01-13T02:53:20;99793.91;;;8.35;67.85
7178;BME280;3630;42.146;24.756;2023-01-13T02:55:50;99818.97;;;8.46;68.20
7178;BME280;3630;42.146;24.756;2023-01-13T02:58:22;99832.72;;;8.48;68.47
7178;BME280;3630;42.146;24.756;2023-01-13T03:00:51;99825.97;;;8.52;68.36
7178;BME280;3630;42.146;24.756;2023-01-13T03:03:19;99822.16;;;8.38;68.30
7178;BME280;3630;42.146;24.756;2023-01-13T03:05:46;99817.84;;;8.37;68.53
7178;BME280;3630;42.146;24.756;2023-01-13T03:08:30;99815.22;;;8.35;68.75
7178;BME280;3630;42.146;24.756;2023-01-13T03:11:04;99813.41;;;8.31;68.97
7178;BME280;3630;42.146;24.756;2023-01-13T03:13:51;99816.06;;;8.34;68.95
7178;BME280;3630;42.146;24.756;2023-01-13T03:16:31;99817.03;;;8.38;68.57
7178;BME280;3630;42.146;24.756;2023-01-13T03:19:19;99808.13;;;8.26;68.84
7178;BME280;3630;42.146;24.756;2023-01-13T03:21:53;99822.00;;;8.33;68.73
7178;BME280;3630;42.146;24.756;2023-01-13T03:24:27;99815.06;;;8.29;69.09
7178;BME280;3630;42.146;24.756;2023-01-13T03:26:59;99814.31;;;8.33;68.96
7178;BME280;3630;42.146;24.756;2023-01-13T03:29:32;99818.56;;;8.32;69.01
7178;BME280;3630;42.146;24.756;2023-01-13T03:32:06;99818.56;;;8.32;68.95
7178;BME280;3630;42.146;24.756;2023-01-13T03:34:38;99820.28;;;8.32;68.97
7178;BME280;3630;42.146;24.756;2023-01-13T03:37:09;99795.06;;;8.17;69.29
7178;BME280;3630;42.146;24.756;2023-01-13T03:39:39;99814.31;;;8.33;69.84
7178;BME280;3630;42.146;24.756;2023-01-13T03:42:11;99813.31;;;8.28;69.68
7178;BME280;3630;42.146;24.756;2023-01-13T03:44:43;99818.44;;;8.28;70.29
7178;BME280;3630;42.146;24.756;2023-01-13T03:47:18;99825.31;;;8.29;70.03
7178;BME280;3630;42.146;24.756;2023-01-13T03:49:51;99829.44;;;8.25;70.32
7178;BME280;3630;42.146;24.756;2023-01-13T03:52:22;99826.00;;;8.25;70.54
7178;BME280;3630;42.146;24.756;2023-01-13T03:54:52;99805.06;;;8.10;70.84
7178;BME280;3630;42.146;24.756;2023-01-13T03:57:24;99816.97;;;8.09;70.36
7178;BME280;3630;42.146;24.756;2023-01-13T03:59:55;99821.19;;;8.07;70.59
7178;BME280;3630;42.146;24.756;2023-01-13T04:02:32;99833.25;;;8.11;71.10
7178;BME280;3630;42.146;24.756;2023-01-13T04:05:03;99846.91;;;8.12;70.60
7178;BME280;3630;42.146;24.756;2023-01-13T04:07:42;99834.13;;;8.12;70.84
7178;BME280;3630;42.146;24.756;2023-01-13T04:10:13;99851.47;;;8.20;71.30
7178;BME280;3630;42.146;24.756;2023-01-13T04:12:47;99838.75;;;8.23;71.05
7178;BME280;3630;42.146;24.756;2023-01-13T04:15:32;99844.78;;;8.25;70.88
7178;BME280;3630;42.146;24.756;2023-01-13T04:18:12;99844.03;;;8.28;70.89
7178;BME280;3630;42.146;24.756;2023-01-13T04:20:40;99850.03;;;8.28;71.21
7178;BME280;3630;42.146;24.756;2023-01-13T04:23:08;99856.03;;;8.29;71.04
7178;BME280;3630;42.146;24.756;2023-01-13T04:25:35;99825.47;;;8.08;71.67
7178;BME280;3630;42.146;24.756;2023-01-13T04:28:02;99857.66;;;8.27;71.77
7178;BME280;3630;42.146;24.756;2023-01-13T04:30:29;99852.63;;;8.30;71.74
7178;BME280;3630;42.146;24.756;2023-01-13T04:32:56;99850.25;;;8.36;71.64
7178;BME280;3630;42.146;24.756;2023-01-13T04:35:24;99850.50;;;8.44;71.51
7178;BME280;3630;42.146;24.756;2023-01-13T04:37:51;99855.50;;;8.41;71.25
7178;BME280;3630;42.146;24.756;2023-01-13T04:40:18;99852.81;;;8.36;71.37
7178;BME280;3630;42.146;24.756;2023-01-13T04:42:45;99857.03;;;8.34;71.46
7178;BME280;3630;42.146;24.756;2023-01-13T04:45:12;99864.91;;;8.40;71.57
7178;BME280;3630;42.146;24.756;2023-01-13T04:47:39;99859.78;;;8.40;71.31
7178;BME280;3630;42.146;24.756;2023-01-13T04:50:08;99865.00;;;8.43;71.51
7178;BME280;3630;42.146;24.756;2023-01-13T04:52:36;99859.88;;;8.43;71.38
7178;BME280;3630;42.146;24.756;2023-01-13T04:55:04;99863.34;;;8.45;71.76
7178;BME280;3630;42.146;24.756;2023-01-13T04:57:31;99859.19;;;8.49;71.17
7178;BME280;3630;42.146;24.756;2023-01-13T04:59:59;99861.69;;;8.47;70.88
7178;BME280;3630;42.146;24.756;2023-01-13T05:02:26;99777.34;;;7.97;70.82
7178;BME280;3630;42.146;24.756;2023-01-13T05:04:53;99875.47;;;8.51;70.92
7178;BME280;3630;42.146;24.756;2023-01-13T05:07:20;99871.06;;;8.47;71.08
7178;BME280;3630;42.146;24.756;2023-01-13T05:09:48;99868.59;;;8.50;70.91
7178;BME280;3630;42.146;24.756;2023-01-13T05:12:15;99877.13;;;8.49;70.68
7178;BME280;3630;42.146;24.756;2023-01-13T05:14:59;99879.63;;;8.47;70.74
7178;BME280;3630;42.146;24.756;2023-01-13T05:17:43;99887.00;;;8.38;71.16
7178;BME280;3630;42.146;24.756;2023-01-13T05:20:11;99875.25;;;8.43;71.27
7178;BME280;3630;42.146;24.756;2023-01-13T05:22:38;99886.31;;;8.42;71.65
7178;BME280;3630;42.146;24.756;2023-01-13T05:25:24;99884.56;;;8.41;71.31
7178;BME280;3630;42.146;24.756;2023-01-13T05:27:53;99885.56;;;8.46;71.56
7178;BME280;3630;42.146;24.756;2023-01-13T05:30:21;99885.66;;;8.49;71.56
7178;BME280;3630;42.146;24.756;2023-01-13T05:32:48;99888.22;;;8.49;70.93
7178;BME280;3630;42.146;24.756;2023-01-13T05:35:15;99884.75;;;8.47;71.04
7178;BME280;3630;42.146;24.756;2023-01-13T05:37:42;99888.09;;;8.45;70.80
7178;BME280;3630;42.146;24.756;2023-01-13T05:40:10;99901.59;;;8.41;71.36
7178;BME280;3630;42.146;24.756;2023-01-13T05:43:03;99893.97;;;8.42;71.04
7178;BME280;3630;42.146;24.756;2023-01-13T05:45:46;99893.50;;;8.54;71.16
7178;BME280;3630;42.146;24.756;2023-01-13T05:48:14;99877.72;;;8.40;70.51
7178;BME280;3630;42.146;24.756;2023-01-13T05:50:41;99896.84;;;8.51;70.17
7178;BME280;3630;42.146;24.756;2023-01-13T05:53:08;99898.53;;;8.51;70.52
7178;BME280;3630;42.146;24.756;2023-01-13T05:55:37;99846.28;;;8.19;70.49
7178;BME280;3630;42.146;24.756;2023-01-13T05:58:06;99896.78;;;8.50;70.04
7178;BME280;3630;42.146;24.756;2023-01-13T06:00:32;99905.47;;;8.55;70.13
7178;BME280;3630;42.146;24.756;2023-01-13T06:02:59;99903.69;;;8.52;69.81
7178;BME280;3630;42.146;24.756;2023-01-13T06:05:27;99910.69;;;8.58;69.69
7178;BME280;3630;42.146;24.756;2023-01-13T06:07:55;99912.19;;;8.51;69.77
7178;BME280;3630;42.146;24.756;2023-01-13T06:10:22;99913.00;;;8.50;69.86
7178;BME280;3630;42.146;24.756;2023-01-13T06:12:49;99917.22;;;8.48;69.90
7178;BME280;3630;42.146;24.756;2023-01-13T06:15:17;99915.44;;;8.46;70.02
7178;BME280;3630;42.146;24.756;2023-01-13T06:17:44;99895.38;;;8.32;69.91
7178;BME280;3630;42.146;24.756;2023-01-13T06:20:11;99917.94;;;8.44;69.81
7178;BME280;3630;42.146;24.756;2023-01-13T06:22:40;99920.59;;;8.47;69.95
7178;BME280;3630;42.146;24.756;2023-01-13T06:25:10;99924.03;;;8.48;70.04
7178;BME280;3630;42.146;24.756;2023-01-13T06:27:39;99931.72;;;8.48;70.04
7178;BME280;3630;42.146;24.756;2023-01-13T06:30:07;99930.84;;;8.47;69.80
7178;BME280;3630;42.146;24.756;2023-01-13T06:32:38;99925.06;;;8.54;69.71
7178;BME280;3630;42.146;24.756;2023-01-13T06:35:10;99924.31;;;8.57;69.54
7178;BME280;3630;42.146;24.756;2023-01-13T06:37:40;99930.34;;;8.59;69.52
7178;BME280;3630;42.146;24.756;2023-01-13T06:40:09;99930.28;;;8.57;68.98
7178;BME280;3630;42.146;24.756;2023-01-13T06:42:38;99931.06;;;8.55;69.22
7178;BME280;3630;42.146;24.756;2023-01-13T06:45:23;99933.16;;;8.66;68.87
7178;BME280;3630;42.146;24.756;2023-01-13T06:47:52;99929.81;;;8.69;68.90
7178;BME280;3630;42.146;24.756;2023-01-13T06:50:21;99938.50;;;8.74;68.95
7178;BME280;3630;42.146;24.756;2023-01-13T06:52:48;99935.44;;;8.85;68.73
7178;BME280;3630;42.146;24.756;2023-01-13T06:55:14;99940.69;;;8.90;68.42
7178;BME280;3630;42.146;24.756;2023-01-13T06:57:48;99946.69;;;8.90;68.73
7178;BME280;3630;42.146;24.756;2023-01-13T07:00:16;99943.94;;;8.84;68.92
7178;BME280;3630;42.146;24.756;2023-01-13T07:02:43;99941.38;;;8.84;69.39
7178;BME280;3630;42.146;24.756;2023-01-13T07:05:11;99941.47;;;8.87;69.57
7178;BME280;3630;42.146;24.756;2023-01-13T07:07:38;99950.88;;;8.87;68.95
7178;BME280;3630;42.146;24.756;2023-01-13T07:10:06;99942.25;;;8.85;69.33
7178;BME280;3630;42.146;24.756;2023-01-13T07:12:34;99947.25;;;8.80;69.89
7178;BME280;3630;42.146;24.756;2023-01-13T07:15:23;99960.97;;;8.82;70.52
7178;BME280;3630;42.146;24.756;2023-01-13T07:17:49;99956.84;;;8.87;70.44
7178;BME280;3630;42.146;24.756;2023-01-13T07:20:18;99873.09;;;8.30;70.86
7178;BME280;3630;42.146;24.756;2023-01-13T07:22:44;99955.72;;;8.78;71.26
7178;BME280;3630;42.146;24.756;2023-01-13T07:25:11;99959.06;;;8.75;71.15
7178;BME280;3630;42.146;24.756;2023-01-13T07:27:38;99955.91;;;8.84;71.29
7178;BME280;3630;42.146;24.756;2023-01-13T07:30:06;99953.47;;;8.88;71.07
7178;BME280;3630;42.146;24.756;2023-01-13T07:32:33;99962.31;;;8.98;70.55
7178;BME280;3630;42.146;24.756;2023-01-13T07:35:00;99951.13;;;8.96;70.27
7178;BME280;3630;42.146;24.756;2023-01-13T07:37:32;99959.78;;;9.00;70.47
7178;BME280;3630;42.146;24.756;2023-01-13T07:39:59;99958.88;;;8.98;70.43
7178;BME280;3630;42.146;24.756;2023-01-13T07:42:26;99961.47;;;8.99;71.03
7178;BME280;3630;42.146;24.756;2023-01-13T07:45:10;99961.47;;;8.99;71.03
7178;BME280;3630;42.146;24.756;2023-01-13T07:47:38;99966.78;;;9.05;71.16
7178;BME280;3630;42.146;24.756;2023-01-13T07:50:06;99961.66;;;9.05;71.70
7178;BME280;3630;42.146;24.756;2023-01-13T07:52:35;99963.34;;;9.05;72.13
7178;BME280;3630;42.146;24.756;2023-01-13T07:55:02;99943.50;;;8.98;72.04
7178;BME280;3630;42.146;24.756;2023-01-13T07:57:28;99968.75;;;9.14;72.43
7178;BME280;3630;42.146;24.756;2023-01-13T07:59:55;99965.31;;;9.13;73.29
7178;BME280;3630;42.146;24.756;2023-01-13T08:02:22;99970.31;;;9.09;74.14
7178;BME280;3630;42.146;24.756;2023-01-13T08:04:49;99949.50;;;8.98;74.73
7178;BME280;3630;42.146;24.756;2023-01-13T08:07:16;99980.66;;;9.12;74.63
7178;BME280;3630;42.146;24.756;2023-01-13T08:09:44;99977.22;;;9.11;74.79
7178;BME280;3630;42.146;24.756;2023-01-13T08:12:11;99977.44;;;9.19;74.66
7178;BME280;3630;42.146;24.756;2023-01-13T08:14:55;99980.88;;;9.19;73.98
7178;BME280;3630;42.146;24.756;2023-01-13T08:17:21;99976.72;;;9.23;73.58
7178;BME280;3630;42.146;24.756;2023-01-13T08:19:48;99982.66;;;9.22;72.35
7178;BME280;3630;42.146;24.756;2023-01-13T08:22:15;99981.97;;;9.27;71.95
7178;BME280;3630;42.146;24.756;2023-01-13T08:24:44;99982.94;;;9.31;71.44
7178;BME280;3630;42.146;24.756;2023-01-13T08:27:11;99993.91;;;9.27;71.81
7178;BME280;3630;42.146;24.756;2023-01-13T08:29:37;99985.41;;;9.28;71.32
7178;BME280;3630;42.146;24.756;2023-01-13T08:32:05;99985.66;;;9.37;71.16
7178;BME280;3630;42.146;24.756;2023-01-13T08:34:32;99978.84;;;9.37;70.85
7178;BME280;3630;42.146;24.756;2023-01-13T08:36:58;99984.06;;;9.40;71.18
7178;BME280;3630;42.146;24.756;2023-01-13T08:39:25;99991.06;;;9.46;72.46
7178;BME280;3630;42.146;24.756;2023-01-13T08:41:53;99943.59;;;9.30;73.20
7178;BME280;3630;42.146;24.756;2023-01-13T08:44:20;99991.63;;;9.66;72.76
7178;BME280;3630;42.146;24.756;2023-01-13T08:46:47;99987.47;;;9.69;73.71
7178;BME280;3630;42.146;24.756;2023-01-13T08:49:15;99990.13;;;9.74;73.96
7178;BME280;3630;42.146;24.756;2023-01-13T08:51:42;99992.81;;;9.78;73.90
7178;BME280;3630;42.146;24.756;2023-01-13T08:54:10;99982.91;;;9.92;74.55
7178;BME280;3630;42.146;24.756;2023-01-13T08:56:37;99981.94;;;9.87;74.47
7178;BME280;3630;42.146;24.756;2023-01-13T08:59:05;99988.19;;;9.96;75.02
7178;BME280;3630;42.146;24.756;2023-01-13T09:01:34;99985.91;;;10.07;75.11
7178;BME280;3630;42.146;24.756;2023-01-13T09:04:03;99979.78;;;10.02;76.15
7178;BME280;3630;42.146;24.756;2023-01-13T09:06:31;99979.97;;;10.09;75.63
7178;BME280;3630;42.146;24.756;2023-01-13T09:08:58;99981.72;;;10.11;75.44
7178;BME280;3630;42.146;24.756;2023-01-13T09:11:30;99979.41;;;10.20;75.99
7178;BME280;3630;42.146;24.756;2023-01-13T09:14:20;99971.06;;;10.28;75.53
7178;BME280;3630;42.146;24.756;2023-01-13T09:16:47;99973.69;;;10.30;74.53
7178;BME280;3630;42.146;24.756;2023-01-13T09:19:14;99973.78;;;10.33;74.06
7178;BME280;3630;42.146;24.756;2023-01-13T09:21:41;99968.69;;;10.36;73.87
7178;BME280;3630;42.146;24.756;2023-01-13T09:24:08;99967.84;;;10.37;73.59
7178;BME280;3630;42.146;24.756;2023-01-13T09:26:36;99966.34;;;10.45;73.69
7178;BME280;3630;42.146;24.756;2023-01-13T09:29:03;99947.22;;;10.34;74.28
7178;BME280;3630;42.146;24.756;2023-01-13T09:31:31;99966.41;;;10.46;73.80
7178;BME280;3630;42.146;24.756;2023-01-13T09:33:59;99963.88;;;10.49;72.67
7178;BME280;3630;42.146;24.756;2023-01-13T09:36:43;99963.84;;;10.48;73.04
7178;BME280;3630;42.146;24.756;2023-01-13T09:39:10;99950.94;;;10.45;72.35
7178;BME280;3630;42.146;24.756;2023-01-13T09:41:41;99958.72;;;10.49;72.34
7178;BME280;3630;42.146;24.756;2023-01-13T09:44:38;99951.25;;;10.58;72.10
7178;BME280;3630;42.146;24.756;2023-01-13T09:47:16;99951.31;;;10.60;71.29
7178;BME280;3630;42.146;24.756;2023-01-13T09:49:43;99944.50;;;10.62;71.35
7178;BME280;3630;42.146;24.756;2023-01-13T09:52:13;99951.72;;;10.80;71.10
7178;BME280;3630;42.146;24.756;2023-01-13T09:54:42;99944.25;;;10.53;73.42
7178;BME280;3630;42.146;24.756;2023-01-13T09:57:11;99938.09;;;10.12;75.90
7178;BME280;3630;42.146;24.756;2023-01-13T09:59:38;99936.69;;;10.22;76.72
7178;BME280;3630;42.146;24.756;2023-01-13T10:02:27;99918.81;;;10.26;76.56
7178;BME280;3630;42.146;24.756;2023-01-13T10:05:05;99932.94;;;10.45;75.42
7178;BME280;3630;42.146;24.756;2023-01-13T10:07:34;99930.59;;;10.54;75.56
7178;BME280;3630;42.146;24.756;2023-01-13T10:10:04;99935.25;;;10.34;75.51
7178;BME280;3630;42.146;24.756;2023-01-13T10:12:38;99935.44;;;10.07;77.03
7178;BME280;3630;42.146;24.756;2023-01-13T10:15:25;99929.16;;;9.96;78.55
7178;BME280;3630;42.146;24.756;2023-01-13T10:17:57;99914.03;;;10.08;78.03
7178;BME280;3630;42.146;24.756;2023-01-13T10:20:32;99916.78;;;10.13;78.14
7178;BME280;3630;42.146;24.756;2023-01-13T10:23:07;99914.31;;;10.18;78.08
7178;BME280;3630;42.146;24.756;2023-01-13T10:25:48;99909.50;;;10.31;77.71
7178;BME280;3630;42.146;24.756;2023-01-13T10:28:20;99907.34;;;10.49;76.81
7178;BME280;3630;42.146;24.756;2023-01-13T10:30:49;99898.09;;;10.56;76.16
7178;BME280;3630;42.146;24.756;2023-01-13T10:33:20;99896.63;;;10.67;75.15
7178;BME280;3630;42.146;24.756;2023-01-13T10:35:51;99897.00;;;10.84;74.80
7178;BME280;3630;42.146;24.756;2023-01-13T10:38:21;99843.41;;;10.61;73.59
7178;BME280;3630;42.146;24.756;2023-01-13T10:40:48;99885.41;;;10.62;74.47
7178;BME280;3630;42.146;24.756;2023-01-13T10:43:15;99886.56;;;10.76;74.55
7178;BME280;3630;42.146;24.756;2023-01-13T10:45:56;99887.47;;;10.80;73.91
7178;BME280;3630;42.146;24.756;2023-01-13T10:48:36;99880.72;;;10.83;73.25
7178;BME280;3630;42.146;24.756;2023-01-13T10:51:21;99890.44;;;10.98;73.37
7178;BME280;3630;42.146;24.756;2023-01-13T10:53:57;99880.47;;;10.73;73.74
7178;BME280;3630;42.146;24.756;2023-01-13T10:56:27;99881.06;;;10.61;74.53
7178;BME280;3630;42.146;24.756;2023-01-13T10:59:16;99886.72;;;10.45;74.45
7178;BME280;3630;42.146;24.756;2023-01-13T11:01:54;99880.53;;;10.37;74.50
7178;BME280;3630;42.146;24.756;2023-01-13T11:04:30;99885.09;;;10.48;74.77
7178;BME280;3630;42.146;24.756;2023-01-13T11:06:57;99873.03;;;10.46;75.21
7178;BME280;3630;42.146;24.756;2023-01-13T11:09:26;99872.81;;;10.37;75.57
7178;BME280;3630;42.146;24.756;2023-01-13T11:11:55;99865.69;;;10.25;76.18
7178;BME280;3630;42.146;24.756;2023-01-13T11:14:26;99866.88;;;10.38;75.58
7178;BME280;3630;42.146;24.756;2023-01-13T11:17:31;99859.63;;;10.59;74.94
7178;BME280;3630;42.146;24.756;2023-01-13T11:20:12;99870.22;;;10.74;72.77
7178;BME280;3630;42.146;24.756;2023-01-13T11:22:44;99864.53;;;10.89;72.97
7178;BME280;3630;42.146;24.756;2023-01-13T11:25:14;99865.56;;;10.97;72.11
7178;BME280;3630;42.146;24.756;2023-01-13T11:27:47;99867.06;;;10.86;72.53
7178;BME280;3630;42.146;24.756;2023-01-13T11:30:23;99867.63;;;10.71;72.67
7178;BME280;3630;42.146;24.756;2023-01-13T11:33:10;99861.00;;;10.82;73.34
7178;BME280;3630;42.146;24.756;2023-01-13T11:35:46;99855.13;;;10.89;72.19
7178;BME280;3630;42.146;24.756;2023-01-13T11:38:23;99856.63;;;10.80;71.10
7178;BME280;3630;42.146;24.756;2023-01-13T11:40:55;99857.06;;;10.59;71.78
7178;BME280;3630;42.146;24.756;2023-01-13T11:43:28;99851.63;;;10.47;72.94
7178;BME280;3630;42.146;24.756;2023-01-13T11:45:59;99857.06;;;10.59;73.53
7178;BME280;3630;42.146;24.756;2023-01-13T11:48:28;99858.09;;;10.68;73.79
7178;BME280;3630;42.146;24.756;2023-01-13T11:51:01;99854.13;;;10.81;72.85
7178;BME280;3630;42.146;24.756;2023-01-13T11:53:42;99856.97;;;10.96;72.34
7178;BME280;3630;42.146;24.756;2023-01-13T11:56:25;99803.97;;;10.59;71.40
7178;BME280;3630;42.146;24.756;2023-01-13T11:59:11;99858.94;;;11.08;70.41
7178;BME280;3630;42.146;24.756;2023-01-13T12:01:51;99860.81;;;11.15;70.03
7178;BME280;3630;42.146;24.756;2023-01-13T12:04:25;99858.06;;;11.06;69.13
7178;BME280;3630;42.146;24.756;2023-01-13T12:07:04;99861.81;;;10.81;69.55
7178;BME280;3630;42.146;24.756;2023-01-13T12:09:51;99862.03;;;10.92;71.12
7178;BME280;3630;42.146;24.756;2023-01-13T12:12:30;99859.91;;;11.13;69.62
7178;BME280;3630;42.146;24.756;2023-01-13T12:15:38;99855.94;;;11.30;67.44
7178;BME280;3630;42.146;24.756;2023-01-13T12:18:20;99855.94;;;11.30;66.82
7178;BME280;3630;42.146;24.756;2023-01-13T12:20:58;99846.66;;;11.38;67.01
7178;BME280;3630;42.146;24.756;2023-01-13T12:23:33;99851.94;;;11.44;67.70
7178;BME280;3630;42.146;24.756;2023-01-13T12:26:05;99848.56;;;11.48;66.74
7178;BME280;3630;42.146;24.756;2023-01-13T12:28:41;99845.97;;;11.47;66.19
7178;BME280;3630;42.146;24.756;2023-01-13T12:31:10;99851.19;;;11.50;66.21
7178;BME280;3630;42.146;24.756;2023-01-13T12:33:49;99840.97;;;11.54;65.06
7178;BME280;3630;42.146;24.756;2023-01-13T12:36:24;99851.09;;;11.45;64.31
7178;BME280;3630;42.146;24.756;2023-01-13T12:38:56;99846.59;;;11.35;64.11
7178;BME280;3630;42.146;24.756;2023-01-13T12:41:34;99838.78;;;11.29;65.06
7178;BME280;3630;42.146;24.756;2023-01-13T12:44:23;99843.22;;;11.36;64.43
7178;BME280;3630;42.146;24.756;2023-01-13T12:46:50;99846.72;;;11.40;64.96
7178;BME280;3630;42.146;24.756;2023-01-13T12:49:26;99819.88;;;11.27;64.58
7178;BME280;3630;42.146;24.756;2023-01-13T12:52:14;99839.88;;;11.42;64.44
7178;BME280;3630;42.146;24.756;2023-01-13T12:55:18;99842.66;;;11.52;64.07
7178;BME280;3630;42.146;24.756;2023-01-13T13:00:55;99832.94;;;11.38;64.76
7178;BME280;3630;42.146;24.756;2023-01-13T13:03:29;99845.72;;;11.32;65.00
7178;BME280;3630;42.146;24.756;2023-01-13T13:06:00;99852.56;;;11.31;64.72
7178;BME280;3630;42.146;24.756;2023-01-13T13:08:49;99854.72;;;11.11;65.49
7178;BME280;3630;42.146;24.756;2023-01-13T13:11:25;99832.28;;;11.04;66.44
7178;BME280;3630;42.146;24.756;2023-01-13T13:17:44;99863.00;;;10.97;67.27
7178;BME280;3630;42.146;24.756;2023-01-13T13:20:56;99856.78;;;10.86;67.68
7178;BME280;3630;42.146;24.756;2023-01-13T13:23:44;99857.28;;;10.70;68.34
7178;BME280;3630;42.146;24.756;2023-01-13T13:26:40;99821.47;;;10.38;69.24
7178;BME280;3630;42.146;24.756;2023-01-13T13:29:39;99859.72;;;10.63;68.91
7178;BME280;3630;42.146;24.756;2023-01-13T13:35:22;99860.69;;;10.68;68.10
7178;BME280;3630;42.146;24.756;2023-01-13T13:38:04;99863.94;;;10.60;68.54
7178;BME280;3630;42.146;24.756;2023-01-13T13:40:52;99868.88;;;10.52;69.19
7178;BME280;3630;42.146;24.756;2023-01-13T13:43:40;99868.66;;;10.42;69.62
7178;BME280;3630;42.146;24.756;2023-01-13T13:46:27;99865.34;;;10.47;70.44
7178;BME280;3630;42.146;24.756;2023-01-13T13:49:14;99858.44;;;10.43;71.88
7178;BME280;3630;42.146;24.756;2023-01-13T13:51:44;99860.94;;;10.42;72.85
7178;BME280;3630;42.146;24.756;2023-01-13T13:54:18;99855.88;;;10.43;72.99
7178;BME280;3630;42.146;24.756;2023-01-13T13:56:47;99869.75;;;10.53;73.06